Barnum, Texas
Current Conditions -  °F | °C
As of 2:53 PM on Thursday 23 Oct 2014 (Local Time) from KLFK Reporting Station
Clear Clear  
Wind Chill: 77°   Ceiling: Unl
Heat Index: 78°   Visibility: 10mi
Dew Point: 53°   Wind: 7mph
Humidity: 43%   Direction: 20°NNE
Pressure: 30.1"   Gusts: NA
Location:  31.024°N, 94.7686°W
Report Text: KLFK 231953Z AUTO 02006KT 10SM CLR 25/12 A3010 RMK AO2 SLP190 T02500117
Loading
Personal Weather Stations






























Interactive Weather Map
Tropical Storm Tracking
New forecast layout! Learn more

10-Day Weather Forecast

Advertisements
Track Severe Weather on mobile